createdAt,value
2023-04-12T05:03:20.069Z,25.00
2023-04-12T05:04:19.980Z,25.00
2023-04-12T05:05:19.991Z,25.00
2023-04-12T05:06:19.983Z,25.00
2023-04-12T05:07:20.038Z,25.00
2023-04-12T05:08:20.053Z,25.00
2023-04-12T05:09:21.075Z,0.00
2023-04-12T05:10:20.107Z,0.00
2023-04-12T05:11:20.115Z,0.00
2023-04-12T05:12:20.155Z,0.00
2023-04-12T05:13:21.188Z,0.00
2023-04-12T05:14:20.451Z,0.00
2023-04-12T05:15:21.243Z,0.00
2023-04-12T05:16:21.341Z,0.00
2023-04-12T05:17:20.380Z,0.00
2023-04-12T05:18:21.354Z,0.00
2023-04-12T05:19:21.412Z,0.00
2023-04-12T05:20:21.412Z,0.00
2023-04-12T05:21:22.673Z,0.00
2023-04-12T05:22:20.487Z,30.25
2023-04-12T05:23:21.436Z,19.47
2023-04-12T05:24:21.536Z,27.07
2023-04-12T05:25:21.552Z,41.05
2023-04-12T05:26:21.422Z,37.23
2023-04-12T05:27:21.409Z,36.13
2023-04-12T05:28:20.388Z,30.69
2023-04-12T05:29:20.386Z,27.89
2023-04-12T05:30:20.385Z,34.21
2023-04-12T05:31:21.505Z,34.48
2023-04-12T05:32:20.439Z,36.71
2023-04-12T05:33:21.398Z,40.65
2023-04-12T05:34:21.349Z,43.61
2023-04-12T05:35:21.414Z,48.25
2023-04-12T05:36:21.336Z,49.21
2023-04-12T05:37:21.346Z,43.11
2023-04-12T05:38:21.350Z,46.24
2023-04-12T05:39:20.866Z,45.30
2023-04-12T05:40:21.319Z,48.61
2023-04-12T05:41:21.321Z,55.76
2023-04-12T05:42:21.341Z,55.22
2023-04-12T05:43:21.308Z,53.44
2023-04-12T05:44:21.290Z,56.92
2023-04-12T05:45:21.336Z,63.26
2023-04-12T05:46:21.328Z,66.14
2023-04-12T05:47:21.315Z,67.27
2023-04-12T05:48:21.265Z,71.80
2023-04-12T05:49:21.265Z,65.58
2023-04-12T05:50:21.257Z,67.36
2023-04-12T05:51:30.639Z,72.25
2023-04-12T05:52:21.586Z,72.54
2023-04-12T05:53:21.225Z,73.00
2023-04-12T05:54:21.329Z,72.91
2023-04-12T05:55:21.223Z,73.18
2023-04-12T05:56:21.254Z,76.30
2023-04-12T05:57:21.256Z,75.19
2023-04-12T05:58:21.209Z,78.89
2023-04-12T05:59:20.226Z,80.20
2023-04-12T06:00:20.204Z,87.25
2023-04-12T06:01:21.210Z,89.84
2023-04-12T06:02:21.678Z,86.13
2023-04-12T06:03:21.282Z,84.77
2023-04-12T06:04:21.326Z,85.00
2023-04-12T06:05:20.212Z,82.30
2023-04-12T06:06:21.160Z,84.26
2023-04-12T06:07:21.196Z,83.99
2023-04-12T06:08:21.154Z,88.79
2023-04-12T06:09:20.137Z,92.95
2023-04-12T06:10:21.150Z,92.71
2023-04-12T06:11:21.142Z,97.17
2023-04-12T06:12:20.134Z,98.91
2023-04-12T06:13:20.137Z,99.78
2023-04-12T06:14:21.095Z,101.72
2023-04-12T06:15:21.162Z,100.18
2023-04-12T06:16:21.205Z,100.76
2023-04-12T06:17:21.091Z,101.82
2023-04-12T06:18:20.070Z,104.05
2023-04-12T06:19:21.084Z,104.04
2023-04-12T06:20:21.055Z,104.15
2023-04-12T06:21:20.081Z,106.00
2023-04-12T06:22:20.050Z,104.83
2023-04-12T06:23:20.065Z,108.53
2023-04-12T06:24:21.036Z,109.99
2023-04-12T06:25:20.040Z,110.54
2023-04-12T06:26:21.101Z,110.87
2023-04-12T06:27:20.020Z,111.95
2023-04-12T06:28:21.008Z,111.81
2023-04-12T06:29:21.015Z,111.28
2023-04-12T06:30:20.004Z,112.12
2023-04-12T06:31:21.194Z,112.99
2023-04-12T06:32:20.999Z,115.00
2023-04-12T06:33:20.976Z,117.34
2023-04-12T06:34:20.990Z,116.66
2023-04-12T06:35:20.969Z,116.73
2023-04-12T06:36:19.957Z,118.20
2023-04-12T06:37:19.958Z,119.34
2023-04-12T06:38:20.958Z,118.30
2023-04-12T06:39:20.017Z,118.64
2023-04-12T06:40:20.019Z,119.90
2023-04-12T06:41:21.028Z,119.24
2023-04-12T06:42:20.053Z,119.50
2023-04-12T06:43:20.058Z,120.83
2023-04-12T06:44:21.061Z,120.36
2023-04-12T06:45:21.090Z,120.14
2023-04-12T06:46:20.177Z,121.19
2023-04-12T06:47:21.260Z,123.18
2023-04-12T06:48:21.137Z,123.30
2023-04-12T06:49:21.155Z,121.91
2023-04-12T06:50:21.193Z,121.47
2023-04-12T06:51:21.203Z,122.08
2023-04-12T06:52:21.540Z,123.90
2023-04-12T06:53:20.228Z,122.77
2023-04-12T06:54:21.252Z,125.35
2023-04-12T06:55:21.289Z,123.02
2023-04-12T06:56:21.331Z,120.48
2023-04-12T06:57:20.544Z,119.03
2023-04-12T06:58:21.368Z,118.41
2023-04-12T06:59:21.397Z,118.33
2023-04-12T07:00:20.419Z,116.33
2023-04-12T07:01:20.515Z,117.09
2023-04-12T07:02:21.557Z,115.47
2023-04-12T07:03:20.573Z,115.98
2023-04-12T07:04:20.577Z,114.59
2023-04-12T07:05:21.595Z,114.80
2023-04-12T07:06:25.673Z,112.07
2023-04-12T07:07:21.722Z,112.27
2023-04-12T07:08:21.764Z,111.96
2023-04-12T07:09:21.775Z,109.41
2023-04-12T07:10:20.826Z,109.74
2023-04-12T07:11:22.249Z,109.77
2023-04-12T07:12:21.871Z,108.33
2023-04-12T07:13:21.909Z,108.86
2023-04-12T07:14:20.951Z,109.27
2023-04-12T07:15:21.980Z,109.80
2023-04-12T07:16:21.053Z,108.47
2023-04-12T07:17:22.133Z,108.97
2023-04-12T07:18:22.098Z,107.18
2023-04-12T07:19:22.113Z,105.10
2023-04-12T07:20:21.383Z,106.25
2023-04-12T07:21:22.146Z,105.85
2023-04-12T07:22:22.188Z,105.69
2023-04-12T07:23:21.203Z,105.34
2023-04-12T07:24:21.219Z,106.06
2023-04-12T07:25:21.258Z,105.62
2023-04-12T07:26:22.289Z,105.54
2023-04-12T07:27:21.460Z,106.17
2023-04-12T07:28:22.365Z,105.73
2023-04-12T07:29:21.356Z,105.64
2023-04-12T07:30:22.389Z,106.69
2023-04-12T07:31:22.410Z,106.64
2023-04-12T07:32:22.538Z,105.80
2023-04-12T07:33:21.584Z,107.59
2023-04-12T07:34:22.672Z,105.75
2023-04-12T07:35:21.518Z,106.15
2023-04-12T07:36:22.610Z,106.38
2023-04-12T07:37:22.571Z,105.63
2023-04-12T07:38:22.594Z,104.80
2023-04-12T07:39:21.668Z,107.66
2023-04-12T07:40:22.736Z,108.19
2023-04-12T07:41:22.735Z,107.38
2023-04-12T07:42:22.753Z,107.18
2023-04-12T07:43:22.781Z,107.88
2023-04-12T07:44:22.779Z,107.68
2023-04-12T07:45:22.790Z,110.51
2023-04-12T07:46:22.982Z,107.45
2023-04-12T07:47:23.075Z,104.41
2023-04-12T07:48:21.787Z,104.39
2023-04-12T07:49:21.811Z,98.68
2023-04-12T07:50:22.842Z,98.61
2023-04-12T07:51:22.863Z,87.64
2023-04-12T07:52:23.073Z,84.13
2023-04-12T07:53:23.042Z,83.38
2023-04-12T07:54:23.748Z,88.55
2023-04-12T07:55:23.016Z,89.90
2023-04-12T07:56:22.085Z,96.93
2023-04-12T07:57:23.114Z,99.18
2023-04-12T07:58:23.134Z,103.81
2023-04-12T07:59:23.352Z,104.67
2023-04-12T08:00:23.218Z,107.49
2023-04-12T08:01:23.221Z,108.81
2023-04-12T08:02:23.308Z,113.19
2023-04-12T08:03:23.322Z,113.73
2023-04-12T08:04:22.416Z,113.88
2023-04-12T08:05:23.268Z,114.16
2023-04-12T08:06:23.291Z,115.93
2023-04-12T08:07:23.374Z,116.25
2023-04-12T08:08:23.396Z,115.69
2023-04-12T08:09:23.442Z,117.34
2023-04-12T08:10:23.508Z,121.01
2023-04-12T08:11:22.542Z,122.82
2023-04-12T08:12:22.587Z,123.36
2023-04-12T08:13:23.624Z,126.13
2023-04-12T08:14:23.674Z,123.91
2023-04-12T08:15:22.866Z,126.38
2023-04-12T08:16:23.817Z,127.10
2023-04-12T08:17:23.801Z,124.62
2023-04-12T08:18:23.788Z,127.01
2023-04-12T08:19:22.832Z,123.94
2023-04-12T08:20:22.891Z,127.38
2023-04-12T08:21:23.958Z,126.23
2023-04-12T08:22:24.068Z,126.92
2023-04-12T08:23:22.960Z,130.56
2023-04-12T08:24:22.976Z,131.97
2023-04-12T08:25:24.032Z,132.53
2023-04-12T08:26:24.041Z,128.98
2023-04-12T08:27:24.097Z,133.01
2023-04-12T08:28:24.105Z,130.06
2023-04-12T08:29:23.154Z,131.75
2023-04-12T08:30:24.218Z,129.64
2023-04-12T08:31:23.336Z,131.85
2023-04-12T08:32:24.254Z,132.26
2023-04-12T08:33:23.278Z,133.72
2023-04-12T08:34:23.325Z,131.05
2023-04-12T08:35:23.361Z,130.65
2023-04-12T08:36:24.414Z,132.81
2023-04-12T08:37:24.487Z,132.95
2023-04-12T08:38:37.228Z,133.39
2023-04-12T08:39:24.502Z,133.57
2023-04-12T08:40:24.505Z,133.53
2023-04-12T08:41:23.493Z,132.32
2023-04-12T08:42:23.597Z,131.90
2023-04-12T08:43:23.487Z,133.82
2023-04-12T08:44:24.468Z,125.47
2023-04-12T08:45:24.454Z,116.96
2023-04-12T08:46:24.467Z,105.92
2023-04-12T08:47:24.720Z,87.58
2023-04-12T08:48:23.432Z,65.60
2023-04-12T08:49:24.448Z,64.63
2023-04-12T08:50:24.497Z,73.11
2023-04-12T08:51:24.429Z,66.15
2023-04-12T08:52:24.423Z,21.49
2023-04-12T08:53:23.429Z,7.79
2023-04-12T08:54:24.407Z,35.21
2023-04-12T08:55:24.424Z,44.24
2023-04-12T08:56:23.544Z,35.08
2023-04-12T08:57:23.628Z,23.49
2023-04-12T08:58:23.583Z,25.00
2023-04-12T08:59:23.609Z,24.60
2023-04-12T09:00:24.686Z,71.91
2023-04-12T09:01:24.743Z,76.59
2023-04-12T09:02:24.939Z,63.19
2023-04-12T09:03:24.945Z,69.97
2023-04-12T09:04:24.823Z,37.82
2023-04-12T09:05:23.850Z,46.22
2023-04-12T09:06:25.634Z,25.00
2023-04-12T09:07:24.942Z,20.69
2023-04-12T09:08:24.944Z,25.80
2023-04-12T09:09:24.956Z,28.75
2023-04-12T09:10:25.008Z,25.00
2023-04-12T09:11:25.006Z,27.59
2023-04-12T09:12:25.065Z,25.00
2023-04-12T09:13:24.089Z,35.53
2023-04-12T09:14:24.107Z,44.74
2023-04-12T09:15:25.134Z,45.71
2023-04-12T09:16:25.153Z,41.65
2023-04-12T09:17:25.240Z,129.79
2023-04-12T09:18:25.207Z,126.16
2023-04-12T09:19:24.364Z,116.29
2023-04-12T09:20:25.232Z,108.30
2023-04-12T09:21:25.247Z,111.81
2023-04-12T09:22:25.322Z,150.36
2023-04-12T09:23:25.316Z,141.78
2023-04-12T09:24:24.383Z,131.36
2023-04-12T09:25:25.335Z,143.22
2023-04-12T09:26:24.346Z,146.31
2023-04-12T09:27:25.377Z,149.93
2023-04-12T09:28:24.424Z,150.45
2023-04-12T09:29:24.439Z,144.62
2023-04-12T09:30:25.464Z,136.83
2023-04-12T09:31:24.529Z,82.01
2023-04-12T09:32:25.595Z,73.17
2023-04-12T09:33:24.569Z,71.36
2023-04-12T09:34:25.962Z,66.07
2023-04-12T09:35:24.646Z,48.70
2023-04-12T09:36:24.651Z,41.56
2023-04-12T09:37:25.617Z,25.00
2023-04-12T09:38:25.599Z,26.42
2023-04-12T09:39:25.562Z,31.41
2023-04-12T09:40:25.570Z,25.00
2023-04-12T09:41:27.138Z,26.73
2023-04-12T09:42:33.964Z,26.74
2023-04-12T09:43:25.561Z,26.91
2023-04-12T09:44:25.543Z,27.59
2023-04-12T09:45:25.882Z,41.42
2023-04-12T09:46:25.538Z,99.21
2023-04-12T09:47:24.554Z,153.18
2023-04-12T09:48:25.633Z,71.15
2023-04-12T09:49:25.499Z,82.39
2023-04-12T09:50:25.493Z,113.16
2023-04-12T09:51:25.540Z,128.23
2023-04-12T09:52:25.533Z,133.68
2023-04-12T09:53:25.640Z,138.84
2023-04-12T09:54:25.460Z,107.38
2023-04-12T09:55:25.588Z,122.51
2023-04-12T09:56:25.453Z,155.99
2023-04-12T09:57:25.432Z,165.78
2023-04-12T09:58:25.522Z,180.56
2023-04-12T09:59:25.443Z,177.43
2023-04-12T10:00:25.462Z,170.99
2023-04-12T10:01:24.480Z,197.22
2023-04-12T10:02:25.641Z,204.49
2023-04-12T10:03:24.495Z,206.81
2023-04-12T10:04:25.537Z,206.95
2023-04-12T10:05:26.040Z,208.57
2023-04-12T10:06:25.393Z,217.56
2023-04-12T10:07:25.581Z,230.51
2023-04-12T10:08:25.433Z,244.12
2023-04-12T10:09:25.441Z,247.80
2023-04-12T10:10:25.446Z,248.03
2023-04-12T10:11:25.437Z,249.92
2023-04-12T10:12:25.444Z,242.85
2023-04-12T10:13:24.441Z,242.16
2023-04-12T10:14:24.429Z,243.23
2023-04-12T10:15:25.478Z,244.24
2023-04-12T10:16:24.468Z,245.25
2023-04-12T10:17:24.457Z,247.27
2023-04-12T10:18:25.407Z,249.41
2023-04-12T10:19:25.382Z,250.00
2023-04-12T10:20:28.523Z,248.58
2023-04-12T10:21:25.600Z,248.89
2023-04-12T10:22:25.394Z,249.33
2023-04-12T10:23:25.525Z,250.61
2023-04-12T10:24:24.379Z,251.04
2023-04-12T10:25:25.507Z,255.23
2023-04-12T10:26:25.355Z,248.78
2023-04-12T10:27:24.335Z,250.00
2023-04-12T10:28:25.342Z,247.54
2023-04-12T10:29:25.335Z,249.63
2023-04-12T10:30:25.331Z,249.54
2023-04-12T10:31:24.449Z,250.00
2023-04-12T10:32:25.339Z,247.04
2023-04-12T10:33:24.387Z,247.33
2023-04-12T10:34:24.402Z,247.37
2023-04-12T10:35:25.396Z,248.81
2023-04-12T10:36:24.424Z,249.87
2023-04-12T10:37:25.405Z,247.46
2023-04-12T10:38:25.430Z,248.95
2023-04-12T10:39:24.494Z,250.00
2023-04-12T10:40:24.540Z,247.70
2023-04-12T10:41:24.520Z,249.90
2023-04-12T10:42:25.562Z,250.00
2023-04-12T10:43:25.677Z,247.73
2023-04-12T10:44:25.704Z,247.71
2023-04-12T10:45:25.741Z,245.78
2023-04-12T10:46:25.817Z,247.91
2023-04-12T10:47:24.987Z,249.48
2023-04-12T10:48:26.165Z,246.43
2023-04-12T10:49:25.923Z,243.38
2023-04-12T10:50:25.956Z,243.45
2023-04-12T10:51:25.981Z,236.50
2023-04-12T10:52:25.007Z,234.18
2023-04-12T10:53:26.119Z,234.64
2023-04-12T10:54:25.132Z,230.90
2023-04-12T10:55:25.139Z,228.68
2023-04-12T10:56:25.144Z,227.64
2023-04-12T10:57:26.214Z,225.10
2023-04-12T10:58:26.254Z,229.74
2023-04-12T10:59:31.406Z,223.99
2023-04-12T11:00:26.316Z,224.18
2023-04-12T11:01:26.358Z,224.37
2023-04-12T11:02:25.594Z,224.73
2023-04-12T11:03:26.317Z,225.25
2023-04-12T11:04:26.277Z,218.49
2023-04-12T11:05:26.463Z,224.66
2023-04-12T11:06:27.895Z,220.89
2023-04-12T11:07:26.222Z,218.27
2023-04-12T11:08:25.230Z,219.31
2023-04-12T11:09:26.200Z,216.71
2023-04-12T11:10:26.259Z,215.83
2023-04-12T11:11:26.223Z,219.69
2023-04-12T11:12:25.162Z,214.29
2023-04-12T11:13:25.162Z,212.91
2023-04-12T11:14:25.207Z,211.23
2023-04-12T11:15:25.175Z,212.59
2023-04-12T11:16:26.165Z,208.78
2023-04-12T11:17:26.308Z,204.63
2023-04-12T11:18:26.264Z,209.52
2023-04-12T11:19:26.129Z,209.26
2023-04-12T11:20:25.117Z,210.29
2023-04-12T11:21:25.109Z,208.44
2023-04-12T11:22:26.169Z,210.74
2023-04-12T11:23:25.146Z,209.61
2023-04-12T11:24:26.096Z,208.21
2023-04-12T11:25:25.091Z,207.58
2023-04-12T11:26:26.100Z,203.68
2023-04-12T11:27:25.092Z,203.52
2023-04-12T11:28:29.019Z,205.87
2023-04-12T11:29:26.052Z,205.98
2023-04-12T11:30:26.088Z,203.45
2023-04-12T11:31:26.044Z,198.19
2023-04-12T11:32:26.145Z,197.79
2023-04-12T11:33:25.039Z,194.72
2023-04-12T11:34:26.033Z,196.09
2023-04-12T11:35:26.015Z,194.91
2023-04-12T11:36:25.022Z,192.98
2023-04-12T11:37:25.018Z,198.03
2023-04-12T11:38:26.017Z,209.14
2023-04-12T11:39:25.997Z,207.37
2023-04-12T11:40:25.022Z,205.02
2023-04-12T11:41:25.972Z,202.29
2023-04-12T11:42:25.989Z,200.02
2023-04-12T11:43:26.003Z,198.79
2023-04-12T11:44:25.967Z,200.76
2023-04-12T11:45:25.984Z,201.21
2023-04-12T11:46:26.026Z,199.50
2023-04-12T11:47:25.047Z,199.87
2023-04-12T11:48:24.939Z,199.43
2023-04-12T11:49:25.929Z,196.91
2023-04-12T11:50:24.990Z,197.72
2023-04-12T11:51:25.405Z,196.62
2023-04-12T11:52:25.996Z,196.37
2023-04-12T11:53:25.014Z,196.22
2023-04-12T11:54:26.022Z,196.10
2023-04-12T11:55:25.044Z,195.36
2023-04-12T11:56:25.078Z,195.52
2023-04-12T11:57:26.109Z,194.22
2023-04-12T11:58:25.105Z,193.39
2023-04-12T11:59:25.190Z,193.65
2023-04-12T12:00:25.153Z,193.68
2023-04-12T12:01:26.142Z,196.14
2023-04-12T12:02:28.815Z,194.30
2023-04-12T12:03:26.322Z,194.44
2023-04-12T12:04:26.317Z,194.36
2023-04-12T12:05:28.165Z,194.60
2023-04-12T12:06:26.556Z,194.02
2023-04-12T12:07:25.266Z,193.80
2023-04-12T12:08:25.132Z,193.48
2023-04-12T12:09:26.524Z,194.98
2023-04-12T12:10:43.648Z,193.71
2023-04-12T12:11:27.340Z,193.93
2023-04-12T12:12:26.130Z,194.11
2023-04-12T12:13:26.406Z,192.81
2023-04-12T12:14:25.130Z,191.32
2023-04-12T12:15:25.192Z,191.31
2023-04-12T12:16:26.659Z,193.90
2023-04-12T12:17:26.109Z,190.84
2023-04-12T12:18:27.536Z,191.55
2023-04-12T12:19:25.198Z,194.07
2023-04-12T12:20:26.129Z,194.12
2023-04-12T12:21:25.221Z,192.61
2023-04-12T12:22:26.214Z,192.34
2023-04-12T12:23:26.208Z,192.39
2023-04-12T12:24:25.281Z,193.31
2023-04-12T12:25:26.308Z,193.09
2023-04-12T12:26:25.331Z,195.56
2023-04-12T12:27:25.505Z,192.64
2023-04-12T12:28:26.464Z,192.79
2023-04-12T12:29:26.483Z,191.40
2023-04-12T12:30:25.537Z,194.40
2023-04-12T12:31:25.701Z,193.53
2023-04-12T12:32:26.639Z,194.56
2023-04-12T12:33:38.753Z,195.06
2023-04-12T12:34:26.620Z,195.29
2023-04-12T12:35:25.610Z,195.97
2023-04-12T12:36:26.603Z,196.93
2023-04-12T12:37:26.596Z,196.57
2023-04-12T12:38:32.215Z,195.21
2023-04-12T12:39:26.599Z,195.28
2023-04-12T12:40:26.575Z,195.43
2023-04-12T12:41:25.598Z,193.68
2023-04-12T12:42:26.579Z,194.31
2023-04-12T12:43:25.558Z,198.16
2023-04-12T12:44:26.560Z,195.56
2023-04-12T12:45:26.563Z,194.62
2023-04-12T12:46:29.476Z,198.07
2023-04-12T12:47:26.714Z,198.20
2023-04-12T12:48:26.552Z,196.90
2023-04-12T12:49:25.541Z,196.79
2023-04-12T12:50:25.534Z,195.56
2023-04-12T12:51:26.513Z,194.67
2023-04-12T12:52:26.513Z,193.56
2023-04-12T12:53:26.494Z,195.70
2023-04-12T12:55:25.475Z,197.54
2023-04-12T12:56:26.476Z,198.01
2023-04-12T12:57:25.462Z,198.13
2023-04-12T12:58:26.465Z,196.51
2023-04-12T12:59:26.458Z,198.86
2023-04-12T13:00:26.448Z,197.70
2023-04-12T13:01:25.513Z,196.31
2023-04-12T13:02:25.686Z,198.60
2023-04-12T13:03:25.819Z,196.52
2023-04-12T13:04:25.588Z,192.84
2023-04-12T13:05:25.537Z,194.77
2023-04-12T13:06:25.541Z,193.51
2023-04-12T13:07:26.402Z,195.47
2023-04-12T13:08:25.403Z,195.99
2023-04-12T13:09:26.400Z,197.03
2023-04-12T13:10:26.421Z,200.07
2023-04-12T13:11:26.384Z,199.92
2023-04-12T13:12:26.374Z,199.09
2023-04-12T13:13:27.193Z,198.76
2023-04-12T13:14:25.363Z,200.17
2023-04-12T13:15:26.344Z,198.68
2023-04-12T13:16:27.139Z,195.72
2023-04-12T13:17:25.375Z,195.44
2023-04-12T13:18:26.352Z,196.22
2023-04-12T13:19:25.367Z,193.78
2023-04-12T13:20:26.321Z,193.70
2023-04-12T13:21:26.314Z,190.49
2023-04-12T13:22:25.325Z,191.18
2023-04-12T13:23:26.295Z,191.69
2023-04-12T13:24:26.300Z,191.77
2023-04-12T13:25:26.287Z,192.24
2023-04-12T13:26:26.281Z,191.24
2023-04-12T13:27:25.287Z,189.56
2023-04-12T13:28:26.281Z,191.73
2023-04-12T13:29:25.275Z,190.65
2023-04-12T13:30:26.271Z,191.84
2023-04-12T13:31:26.251Z,193.38
2023-04-12T13:32:25.257Z,190.97
2023-04-12T13:33:26.332Z,192.48
2023-04-12T13:34:25.279Z,194.51
2023-04-12T13:35:26.355Z,194.83
2023-04-12T13:36:26.718Z,195.06
2023-04-12T13:37:26.414Z,195.60
2023-04-12T13:38:26.430Z,195.12
2023-04-12T13:39:26.485Z,196.54
2023-04-12T13:40:25.525Z,195.49
2023-04-12T13:41:26.536Z,193.94
2023-04-12T13:42:26.562Z,193.70
2023-04-12T13:43:26.550Z,196.00
2023-04-12T13:44:26.582Z,198.31
2023-04-12T13:45:26.624Z,196.32
2023-04-12T13:46:26.739Z,198.06
2023-04-12T13:47:25.643Z,202.24
2023-04-12T13:48:26.661Z,210.08
2023-04-12T13:49:26.746Z,214.03
2023-04-12T13:50:26.723Z,217.73
2023-04-12T13:51:26.777Z,229.55
2023-04-12T13:52:26.787Z,216.04
2023-04-12T13:53:26.800Z,230.77
2023-04-12T13:54:26.834Z,220.88
2023-04-12T13:55:25.869Z,213.22
2023-04-12T13:56:28.267Z,212.00
2023-04-12T13:57:26.880Z,212.30
2023-04-12T13:58:26.868Z,213.58
2023-04-12T13:59:25.872Z,216.13
2023-04-12T14:00:26.870Z,222.53
2023-04-12T14:01:25.946Z,230.92
2023-04-12T14:02:28.638Z,232.05
2023-04-12T14:03:26.889Z,232.24
2023-04-12T14:04:26.887Z,232.19
2023-04-12T14:05:26.840Z,232.04
2023-04-12T14:06:25.861Z,230.67
2023-04-12T14:07:26.829Z,228.30
2023-04-12T14:08:26.814Z,231.19
2023-04-12T14:09:25.932Z,229.82
2023-04-12T14:10:25.870Z,225.52
2023-04-12T14:11:26.794Z,229.30
2023-04-12T14:12:26.784Z,226.99
2023-04-12T14:13:26.781Z,227.90
2023-04-12T14:14:26.801Z,227.22
2023-04-12T14:15:26.773Z,226.30
2023-04-12T14:16:25.820Z,225.97
2023-04-12T14:17:25.865Z,226.33
2023-04-12T14:18:26.789Z,227.98
2023-04-12T14:19:25.736Z,227.42
2023-04-12T14:20:26.741Z,228.05
2023-04-12T14:21:26.728Z,227.74
2023-04-12T14:22:26.737Z,227.48
2023-04-12T14:23:26.733Z,228.44
2023-04-12T14:24:26.716Z,226.80
2023-04-12T14:25:26.715Z,227.11
2023-04-12T14:26:25.699Z,226.82
2023-04-12T14:27:26.698Z,226.10
2023-04-12T14:28:26.695Z,225.77
2023-04-12T14:29:26.708Z,225.62
2023-04-12T14:30:26.675Z,226.10
2023-04-12T14:31:26.735Z,226.68
2023-04-12T14:32:25.688Z,224.55
2023-04-12T14:33:26.662Z,221.35
2023-04-12T14:34:26.696Z,220.86
2023-04-12T14:35:26.723Z,221.68
2023-04-12T14:36:26.730Z,221.50
2023-04-12T14:37:26.778Z,220.27
2023-04-12T14:38:26.770Z,220.45
2023-04-12T14:39:26.814Z,219.61
2023-04-12T14:40:26.806Z,220.99
2023-04-12T14:41:25.839Z,222.81
2023-04-12T14:42:26.867Z,220.42
2023-04-12T14:43:26.902Z,222.48
2023-04-12T14:44:26.452Z,225.06
2023-04-12T14:45:26.081Z,225.39
2023-04-12T14:46:26.233Z,225.42
2023-04-12T14:47:26.982Z,223.41
2023-04-12T14:48:27.017Z,224.24
2023-04-12T14:49:27.054Z,225.46
2023-04-12T14:50:26.062Z,223.98
2023-04-12T14:51:27.040Z,223.23
2023-04-12T14:52:27.054Z,224.29
2023-04-12T14:53:26.068Z,224.61
2023-04-12T14:54:26.148Z,225.64
2023-04-12T14:55:26.235Z,225.09
2023-04-12T14:56:28.632Z,224.65
2023-04-12T14:57:26.225Z,228.08
2023-04-12T14:58:27.214Z,226.92
2023-04-12T14:59:26.231Z,226.92
2023-04-12T15:00:27.192Z,228.30
2023-04-12T15:01:26.325Z,228.64
2023-04-12T15:02:27.372Z,229.33
2023-04-12T15:03:26.383Z,229.95
2023-04-12T15:04:27.263Z,230.51
2023-04-12T15:05:27.235Z,234.63
2023-04-12T15:06:27.193Z,232.21
2023-04-12T15:07:27.161Z,233.99
2023-04-12T15:08:27.164Z,230.60
2023-04-12T15:09:26.200Z,229.09
2023-04-12T15:10:26.159Z,227.22
2023-04-12T15:11:26.171Z,228.01
2023-04-12T15:12:27.112Z,224.12
2023-04-12T15:13:32.089Z,220.06
2023-04-12T15:14:27.119Z,220.27
2023-04-12T15:15:27.093Z,219.57
2023-04-12T15:16:27.142Z,217.97
2023-04-12T15:17:26.132Z,214.69
2023-04-12T15:18:26.187Z,212.79
2023-04-12T15:19:27.125Z,212.80
2023-04-12T15:20:27.074Z,212.42
2023-04-12T15:21:27.067Z,210.27
2023-04-12T15:22:26.190Z,205.46
2023-04-12T15:23:27.065Z,203.00
2023-04-12T15:24:26.169Z,201.07
2023-04-12T15:25:27.032Z,197.79
2023-04-12T15:26:27.026Z,193.70
2023-04-12T15:27:27.052Z,191.52
2023-04-12T15:28:26.022Z,190.36
2023-04-12T15:29:27.022Z,187.81
